Time;durP1;ratioP1;P1;durP2;ratioP2;P2;SDS_P1;SDS_P2;PMS_P1;PMS_P2;Temp;Humidity;BMP_temperature;BMP_pressure;BME280_temperature;BME280_humidity;BME280_pressure;Samples;Min_cycle;Max_cycle;Signal;HPM_P1;HPM_P2
2021/12/31 00:00:18;;;;;;;6.53;2.23;;;;;;;;;;6292193;28;20190;-79
2021/12/31 00:03:27;;;;;;;6.07;2.20;;;;;;;;;;6293652;28;20317;-79
2021/12/31 00:06:32;;;;;;;2.10;2.00;;;;;;;;;;6293971;28;20187;-79
2021/12/31 00:09:36;;;;;;;4.43;1.70;;;;;;;;;;6290031;28;20210;-79
2021/12/31 00:12:42;;;;;;;5.20;2.07;;;;;;;;;;6290836;28;20228;-79
2021/12/31 00:15:47;;;;;;;5.73;2.17;;;;;;;;;;6290800;28;20184;-79
2021/12/31 00:18:54;;;;;;;1.70;1.67;;;;;;;;;;6291396;28;20216;-79
2021/12/31 00:22:04;;;;;;;1.73;1.63;;;;;;;;;;6291153;28;20273;-79
2021/12/31 00:25:10;;;;;;;5.37;2.00;;;;;;;;;;6294253;28;20219;-79
2021/12/31 00:28:15;;;;;;;3.80;1.97;;;;;;;;;;6296733;28;20232;-79
2021/12/31 00:31:19;;;;;;;6.37;2.00;;;;;;;;;;6296439;28;20217;-79
2021/12/31 00:34:25;;;;;;;4.73;1.73;;;;;;;;;;6294998;28;20229;-79
2021/12/31 00:37:32;;;;;;;3.60;1.87;;;;;;;;;;6296094;28;20194;-79
2021/12/31 00:40:37;;;;;;;1.57;1.57;;;;;;;;;;6296190;28;20194;-79
2021/12/31 00:43:41;;;;;;;6.70;1.70;;;;;;;;;;6295564;28;20250;-79
2021/12/31 00:46:47;;;;;;;2.13;1.93;;;;;;;;;;6295334;28;20232;-79
2021/12/31 00:49:52;;;;;;;1.80;1.70;;;;;;;;;;6296041;28;20194;-79
2021/12/31 00:52:57;;;;;;;5.70;1.80;;;;;;;;;;6296264;28;20230;-79
2021/12/31 00:56:01;;;;;;;3.23;1.80;;;;;;;;;;6294863;28;20394;-79
2021/12/31 00:59:05;;;;;;;2.53;1.80;;;;;;;;;;6294915;28;20187;-79
2021/12/31 01:02:12;;;;;;;4.63;1.63;;;;;;;;;;6294959;28;20192;-79
2021/12/31 01:05:18;;;;;;;4.43;1.97;;;;;;;;;;6294894;28;20185;-79
2021/12/31 01:08:22;;;;;;;6.70;1.60;;;;;;;;;;6293761;28;20192;-79
2021/12/31 01:11:26;;;;;;;7.93;1.43;;;;;;;;;;6294554;28;20235;-79
2021/12/31 01:14:34;;;;;;;7.70;1.80;;;;;;;;;;6294619;28;20372;-79
2021/12/31 01:17:50;;;;;;;3.03;1.50;;;;;;;;;;6295046;28;20219;-79
2021/12/31 01:20:56;;;;;;;2.83;1.70;;;;;;;;;;6294456;28;20253;-79
2021/12/31 01:24:01;;;;;;;1.80;1.70;;;;;;;;;;6295030;28;20222;-79
2021/12/31 01:27:05;;;;;;;2.13;1.57;;;;;;;;;;6294740;28;20379;-79
2021/12/31 01:30:14;;;;;;;5.67;1.83;;;;;;;;;;6295381;28;20194;-79
2021/12/31 01:33:19;;;;;;;4.47;1.83;;;;;;;;;;6295026;28;20506;-79
2021/12/31 01:36:24;;;;;;;3.53;1.80;;;;;;;;;;6294920;28;20248;-79
2021/12/31 01:39:29;;;;;;;2.27;2.07;;;;;;;;;;6297626;28;20213;-79
2021/12/31 01:42:35;;;;;;;4.77;1.93;;;;;;;;;;6298300;28;20188;-79
2021/12/31 01:45:46;;;;;;;1.83;1.83;;;;;;;;;;6294289;28;20204;-79
2021/12/31 01:49:02;;;;;;;5.80;1.90;;;;;;;;;;6294837;28;20188;-79
2021/12/31 01:52:10;;;;;;;7.07;1.87;;;;;;;;;;6294321;28;20251;-79
2021/12/31 01:55:15;;;;;;;2.27;1.80;;;;;;;;;;6294448;28;20189;-79
2021/12/31 01:58:22;;;;;;;4.00;1.73;;;;;;;;;;6326958;28;20203;-79
2021/12/31 02:01:26;;;;;;;4.70;1.43;;;;;;;;;;6295317;28;20244;-79
2021/12/31 02:04:31;;;;;;;5.40;1.63;;;;;;;;;;6296332;28;20222;-79
2021/12/31 02:07:37;;;;;;;1.87;1.80;;;;;;;;;;6297038;28;20188;-79
2021/12/31 02:10:43;;;;;;;5.43;1.73;;;;;;;;;;6297681;28;20194;-79
2021/12/31 02:13:48;;;;;;;2.70;1.87;;;;;;;;;;6296003;28;20199;-79
2021/12/31 02:16:52;;;;;;;1.50;1.50;;;;;;;;;;6293733;28;20186;-79
2021/12/31 02:20:01;;;;;;;1.47;1.40;;;;;;;;;;6294223;28;20218;-79
2021/12/31 02:23:08;;;;;;;6.37;1.63;;;;;;;;;;6293648;28;20217;-79
2021/12/31 02:26:13;;;;;;;2.40;1.70;;;;;;;;;;6293209;28;20195;-79
2021/12/31 02:29:17;;;;;;;2.80;1.80;;;;;;;;;;6293409;28;20190;-79
2021/12/31 02:32:22;;;;;;;2.53;1.50;;;;;;;;;;6293264;28;20346;-79
2021/12/31 02:35:27;;;;;;;1.90;1.40;;;;;;;;;;6293434;28;20264;-79
2021/12/31 02:38:31;;;;;;;2.40;1.40;;;;;;;;;;6293040;28;20282;-79
2021/12/31 02:41:36;;;;;;;1.57;1.57;;;;;;;;;;6293424;28;20233;-79
2021/12/31 02:44:42;;;;;;;4.00;1.73;;;;;;;;;;6292852;28;20280;-79
2021/12/31 02:47:47;;;;;;;6.83;1.80;;;;;;;;;;6291820;28;20238;-79
2021/12/31 02:50:53;;;;;;;1.60;1.50;;;;;;;;;;6293237;28;20308;-79
2021/12/31 02:53:57;;;;;;;1.47;1.47;;;;;;;;;;6293168;28;20198;-79
2021/12/31 02:57:02;;;;;;;1.77;1.73;;;;;;;;;;6292608;28;20187;-79
2021/12/31 03:00:08;;;;;;;5.20;1.90;;;;;;;;;;6292457;28;20213;-79
2021/12/31 03:03:18;;;;;;;4.77;1.70;;;;;;;;;;6292103;28;20186;-79
2021/12/31 03:06:25;;;;;;;1.30;1.30;;;;;;;;;;6292360;28;20194;-79
2021/12/31 03:09:31;;;;;;;5.30;1.80;;;;;;;;;;6292660;28;20185;-79
2021/12/31 03:12:35;;;;;;;3.03;1.40;;;;;;;;;;6293025;28;20502;-79
2021/12/31 03:15:39;;;;;;;4.87;1.60;;;;;;;;;;6295056;28;20241;-79
2021/12/31 03:18:44;;;;;;;1.50;1.40;;;;;;;;;;6295059;28;20186;-79
2021/12/31 03:21:50;;;;;;;1.53;1.53;;;;;;;;;;6292523;28;20209;-79
2021/12/31 03:24:55;;;;;;;3.40;1.70;;;;;;;;;;6293022;28;20222;-79
2021/12/31 03:27:59;;;;;;;1.43;1.43;;;;;;;;;;6293617;28;20211;-79
2021/12/31 03:31:03;;;;;;;1.80;1.70;;;;;;;;;;6295261;28;20187;-79
2021/12/31 03:34:13;;;;;;;1.90;1.60;;;;;;;;;;6295251;28;20212;-79
2021/12/31 03:37:19;;;;;;;4.90;1.47;;;;;;;;;;6294600;28;20225;-79
2021/12/31 03:40:24;;;;;;;3.63;1.53;;;;;;;;;;6294446;28;20187;-79
2021/12/31 03:43:29;;;;;;;1.40;1.40;;;;;;;;;;6291959;28;20213;-79
2021/12/31 03:46:33;;;;;;;5.83;1.60;;;;;;;;;;6291796;28;20302;-79
2021/12/31 03:49:38;;;;;;;1.50;1.50;;;;;;;;;;6291987;28;20185;-79
2021/12/31 03:52:43;;;;;;;2.57;1.40;;;;;;;;;;6291238;28;20224;-80
2021/12/31 03:55:48;;;;;;;4.03;1.67;;;;;;;;;;6291899;28;20284;-79
2021/12/31 03:58:52;;;;;;;1.73;1.50;;;;;;;;;;6291703;28;20193;-79
2021/12/31 04:01:57;;;;;;;1.50;1.50;;;;;;;;;;6291790;28;20349;-79
2021/12/31 04:05:02;;;;;;;1.50;1.50;;;;;;;;;;6291366;28;20431;-79
2021/12/31 04:08:08;;;;;;;1.40;1.40;;;;;;;;;;6292081;28;20212;-79
2021/12/31 04:11:13;;;;;;;1.30;1.30;;;;;;;;;;6290873;28;20204;-79
2021/12/31 04:14:17;;;;;;;1.60;1.60;;;;;;;;;;6291315;28;20188;-79
2021/12/31 04:17:21;;;;;;;1.50;1.50;;;;;;;;;;6289479;28;20233;-79
2021/12/31 04:20:35;;;;;;;6.07;2.00;;;;;;;;;;6291657;28;20194;-79
2021/12/31 04:23:50;;;;;;;1.43;1.43;;;;;;;;;;6291545;28;20191;-79
2021/12/31 04:26:54;;;;;;;1.60;1.50;;;;;;;;;;6290912;28;20187;-79
2021/12/31 04:29:59;;;;;;;1.40;1.30;;;;;;;;;;6292183;28;20184;-79
2021/12/31 04:33:03;;;;;;;2.07;1.20;;;;;;;;;;6291776;28;20197;-79
2021/12/31 04:36:09;;;;;;;1.37;1.37;;;;;;;;;;6291631;28;20258;-79
2021/12/31 04:39:15;;;;;;;1.53;1.50;;;;;;;;;;6292412;28;20185;-79
2021/12/31 04:42:19;;;;;;;1.50;1.50;;;;;;;;;;6294486;28;20192;-79
2021/12/31 04:45:24;;;;;;;1.50;1.50;;;;;;;;;;6294333;28;20308;-79
2021/12/31 04:48:29;;;;;;;4.43;1.60;;;;;;;;;;6296012;28;20259;-79
2021/12/31 04:51:33;;;;;;;1.23;1.23;;;;;;;;;;6295982;28;20186;-79
2021/12/31 04:54:39;;;;;;;3.27;1.43;;;;;;;;;;6296241;28;20188;-80
2021/12/31 04:57:47;;;;;;;1.30;1.30;;;;;;;;;;6296302;28;20184;-79
2021/12/31 05:00:51;;;;;;;3.50;1.53;;;;;;;;;;6296195;28;20215;-79
2021/12/31 05:03:56;;;;;;;2.33;1.40;;;;;;;;;;6295100;28;20191;-79
2021/12/31 05:07:00;;;;;;;2.00;1.40;;;;;;;;;;6296208;28;20213;-80
2021/12/31 05:10:07;;;;;;;1.37;1.30;;;;;;;;;;6296353;28;20248;-79
2021/12/31 05:13:15;;;;;;;1.70;1.50;;;;;;;;;;6300550;28;20273;-79
2021/12/31 05:16:20;;;;;;;5.10;1.70;;;;;;;;;;6300967;28;20189;-79
2021/12/31 05:19:24;;;;;;;1.80;1.80;;;;;;;;;;6300439;28;20194;-79
2021/12/31 05:22:28;;;;;;;1.33;1.33;;;;;;;;;;6300234;28;20186;-79
2021/12/31 05:25:34;;;;;;;1.77;1.67;;;;;;;;;;6299623;28;20216;-78
2021/12/31 05:28:43;;;;;;;3.70;1.77;;;;;;;;;;6298856;28;20223;-79
2021/12/31 05:31:47;;;;;;;1.40;1.40;;;;;;;;;;6298439;28;20242;-79
2021/12/31 05:34:52;;;;;;;1.53;1.47;;;;;;;;;;6299228;28;20199;-78
2021/12/31 05:37:57;;;;;;;3.70;1.30;;;;;;;;;;6299474;28;20188;-78
2021/12/31 05:41:03;;;;;;;2.77;1.30;;;;;;;;;;6298637;28;20207;-79
2021/12/31 05:44:08;;;;;;;1.30;1.30;;;;;;;;;;6299423;28;20538;-78
2021/12/31 05:47:12;;;;;;;1.70;1.70;;;;;;;;;;6298435;28;20244;-79
2021/12/31 05:50:28;;;;;;;3.13;1.40;;;;;;;;;;6299373;28;20191;-79
2021/12/31 05:53:32;;;;;;;1.40;1.40;;;;;;;;;;6297675;28;20193;-79
2021/12/31 05:56:38;;;;;;;2.87;1.40;;;;;;;;;;6294820;28;20195;-79
2021/12/31 05:59:42;;;;;;;3.70;1.43;;;;;;;;;;6294974;28;20230;-79
2021/12/31 06:02:46;;;;;;;1.40;1.40;;;;;;;;;;6294224;28;20184;-79
2021/12/31 06:05:51;;;;;;;1.60;1.50;;;;;;;;;;6294772;28;20212;-79
2021/12/31 06:08:55;;;;;;;1.50;1.40;;;;;;;;;;6295290;28;20186;-79
2021/12/31 06:12:01;;;;;;;1.70;1.60;;;;;;;;;;6293929;28;20248;-79
2021/12/31 06:15:08;;;;;;;1.23;1.23;;;;;;;;;;6293104;28;20194;-79
2021/12/31 06:18:17;;;;;;;2.03;1.83;;;;;;;;;;6293553;28;20246;-79
2021/12/31 06:21:21;;;;;;;2.00;1.50;;;;;;;;;;6293611;28;20371;-79
2021/12/31 06:24:26;;;;;;;5.77;1.73;;;;;;;;;;6295790;28;20185;-79
2021/12/31 06:27:32;;;;;;;1.50;1.50;;;;;;;;;;6296496;28;20266;-79
2021/12/31 06:30:37;;;;;;;2.97;1.70;;;;;;;;;;6295182;28;20191;-79
2021/12/31 06:33:41;;;;;;;2.80;1.53;;;;;;;;;;6293649;28;20184;-79
2021/12/31 06:36:45;;;;;;;4.17;1.67;;;;;;;;;;6294062;28;20251;-79
2021/12/31 06:39:50;;;;;;;2.07;1.97;;;;;;;;;;6293731;28;20186;-79
2021/12/31 06:42:55;;;;;;;1.80;1.70;;;;;;;;;;6293807;28;20195;-79
2021/12/31 06:46:00;;;;;;;1.50;1.50;;;;;;;;;;6293343;28;20266;-79
2021/12/31 06:49:04;;;;;;;4.87;1.60;;;;;;;;;;6292900;28;20470;-79
2021/12/31 06:52:10;;;;;;;1.77;1.50;;;;;;;;;;6292927;28;20184;-79
2021/12/31 06:55:15;;;;;;;1.63;1.43;;;;;;;;;;6293922;28;20188;-79
2021/12/31 06:58:20;;;;;;;1.60;1.60;;;;;;;;;;6293555;28;20188;-79
2021/12/31 07:01:25;;;;;;;4.77;1.83;;;;;;;;;;6292808;28;20247;-79
2021/12/31 07:04:30;;;;;;;1.70;1.60;;;;;;;;;;6293158;28;20199;-79
2021/12/31 07:07:34;;;;;;;1.47;1.47;;;;;;;;;;6293878;28;20208;-79
2021/12/31 07:10:38;;;;;;;2.30;1.80;;;;;;;;;;6292836;28;20215;-79
2021/12/31 07:13:44;;;;;;;3.70;1.80;;;;;;;;;;6293640;28;20192;-79
2021/12/31 07:16:48;;;;;;;1.70;1.70;;;;;;;;;;6292806;28;20245;-79
2021/12/31 07:19:52;;;;;;;3.30;1.90;;;;;;;;;;6293099;28;20223;-79
2021/12/31 07:22:56;;;;;;;1.80;1.80;;;;;;;;;;6293464;28;20191;-79
2021/12/31 07:26:01;;;;;;;1.80;1.80;;;;;;;;;;6291944;28;20239;-80
2021/12/31 07:29:06;;;;;;;1.87;1.77;;;;;;;;;;6292338;28;20247;-79
2021/12/31 07:32:12;;;;;;;2.10;2.00;;;;;;;;;;6292558;28;20189;-79
2021/12/31 07:35:16;;;;;;;1.90;1.90;;;;;;;;;;6291556;28;20184;-79
2021/12/31 07:38:24;;;;;;;1.63;1.63;;;;;;;;;;6292416;28;20236;-79
2021/12/31 07:41:28;;;;;;;2.03;1.73;;;;;;;;;;6292657;28;20188;-80
2021/12/31 07:44:34;;;;;;;1.93;1.87;;;;;;;;;;6292085;28;20191;-81
2021/12/31 07:47:38;;;;;;;2.50;2.00;;;;;;;;;;6290542;28;20242;-79
2021/12/31 07:50:44;;;;;;;2.07;1.90;;;;;;;;;;6291969;28;20421;-78
2021/12/31 07:53:49;;;;;;;3.40;1.70;;;;;;;;;;6293024;28;20192;-78
2021/12/31 07:56:53;;;;;;;1.70;1.70;;;;;;;;;;6293290;28;20256;-81
2021/12/31 07:59:58;;;;;;;2.67;2.37;;;;;;;;;;6293807;28;20291;-79
2021/12/31 08:03:04;;;;;;;2.17;2.10;;;;;;;;;;6294086;28;20537;-80
2021/12/31 08:06:11;;;;;;;1.70;1.70;;;;;;;;;;6294184;28;20218;-80
2021/12/31 08:09:15;;;;;;;2.20;2.20;;;;;;;;;;6291792;28;20240;-79
2021/12/31 08:12:20;;;;;;;2.50;2.37;;;;;;;;;;6291928;28;20186;-79
2021/12/31 08:15:25;;;;;;;2.20;2.20;;;;;;;;;;6291702;28;20185;-79
2021/12/31 08:18:29;;;;;;;5.20;1.93;;;;;;;;;;6293068;28;20224;-79
2021/12/31 08:21:34;;;;;;;2.37;2.23;;;;;;;;;;6292056;28;20215;-79
2021/12/31 08:24:38;;;;;;;3.33;2.03;;;;;;;;;;6292008;28;20555;-79
2021/12/31 08:27:42;;;;;;;2.37;2.20;;;;;;;;;;6292103;28;20214;-79
2021/12/31 08:30:48;;;;;;;2.47;1.83;;;;;;;;;;6292211;28;20253;-79
2021/12/31 08:33:52;;;;;;;7.60;2.37;;;;;;;;;;6292417;28;20190;-79
2021/12/31 08:36:56;;;;;;;2.43;2.03;;;;;;;;;;6292913;28;20252;-79
2021/12/31 08:40:00;;;;;;;4.97;2.90;;;;;;;;;;6292507;28;20233;-79
2021/12/31 08:43:05;;;;;;;3.53;2.77;;;;;;;;;;6292293;28;20185;-79
2021/12/31 08:46:10;;;;;;;5.00;2.93;;;;;;;;;;6294141;28;20594;-80
2021/12/31 08:49:15;;;;;;;9.27;3.20;;;;;;;;;;6296748;28;20257;-80
2021/12/31 08:52:19;;;;;;;6.17;2.50;;;;;;;;;;6296596;28;20504;-79
2021/12/31 08:55:23;;;;;;;7.43;2.57;;;;;;;;;;6295566;28;20188;-79
2021/12/31 08:58:28;;;;;;;4.07;2.40;;;;;;;;;;6295104;28;20189;-79
2021/12/31 09:01:33;;;;;;;4.20;2.93;;;;;;;;;;6295191;28;20187;-79
2021/12/31 09:04:37;;;;;;;2.63;2.40;;;;;;;;;;6296358;28;20187;-79
2021/12/31 09:07:41;;;;;;;6.47;2.70;;;;;;;;;;6294895;28;20359;-79
2021/12/31 09:10:46;;;;;;;4.57;2.97;;;;;;;;;;6296108;28;20192;-79
2021/12/31 09:13:52;;;;;;;4.33;2.83;;;;;;;;;;6295259;28;20297;-80
2021/12/31 09:16:58;;;;;;;6.60;2.73;;;;;;;;;;6293060;28;20198;-79
2021/12/31 09:20:03;;;;;;;3.37;2.60;;;;;;;;;;6294039;28;20254;-79
2021/12/31 09:23:09;;;;;;;2.77;2.57;;;;;;;;;;6296158;28;20197;-79
2021/12/31 09:26:15;;;;;;;9.13;2.90;;;;;;;;;;6294765;28;20187;-79
2021/12/31 09:29:21;;;;;;;3.63;2.77;;;;;;;;;;6295446;28;20234;-79
2021/12/31 09:32:27;;;;;;;6.53;2.57;;;;;;;;;;6295918;28;20187;-79
2021/12/31 09:35:33;;;;;;;2.77;2.57;;;;;;;;;;6295081;28;20187;-80
2021/12/31 09:38:38;;;;;;;7.20;2.57;;;;;;;;;;6295795;28;20259;-80
2021/12/31 09:41:43;;;;;;;5.30;2.70;;;;;;;;;;6293693;28;20267;-80
2021/12/31 09:44:47;;;;;;;3.33;2.77;;;;;;;;;;6327318;28;20489;-80
2021/12/31 09:47:58;;;;;;;2.80;2.63;;;;;;;;;;6294148;28;20271;-80
2021/12/31 09:51:07;;;;;;;4.30;2.57;;;;;;;;;;6290198;28;20187;-77
2021/12/31 09:54:12;;;;;;;2.50;2.30;;;;;;;;;;6288798;28;20419;-77
2021/12/31 09:57:18;;;;;;;3.00;2.80;;;;;;;;;;6290281;28;20185;-78
2021/12/31 10:00:22;;;;;;;2.40;2.40;;;;;;;;;;6292819;28;20187;-79
2021/12/31 10:03:29;;;;;;;2.30;2.20;;;;;;;;;;6291279;28;20483;-78
2021/12/31 10:06:33;;;;;;;1.50;1.50;;;;;;;;;;6291481;28;20210;-77
2021/12/31 10:09:40;;;;;;;3.43;1.80;;;;;;;;;;6290679;28;20251;-76
2021/12/31 10:12:51;;;;;;;2.03;1.93;;;;;;;;;;6290156;28;20204;-77
2021/12/31 10:15:56;;;;;;;1.50;1.50;;;;;;;;;;6289378;28;20381;-78
2021/12/31 10:19:07;;;;;;;1.40;1.40;;;;;;;;;;6290807;28;20191;-77
2021/12/31 10:22:18;;;;;;;1.27;1.27;;;;;;;;;;6290714;28;20233;-78
2021/12/31 10:25:24;;;;;;;1.20;1.20;;;;;;;;;;6291160;28;20187;-78
2021/12/31 10:28:28;;;;;;;1.30;1.30;;;;;;;;;;6289024;28;20246;-77
2021/12/31 10:31:42;;;;;;;1.87;1.80;;;;;;;;;;6293462;28;20195;-78
2021/12/31 10:34:48;;;;;;;1.60;1.50;;;;;;;;;;6292877;28;20195;-83
2021/12/31 10:37:57;;;;;;;1.67;1.57;;;;;;;;;;6292869;28;20280;-81
2021/12/31 10:41:02;;;;;;;5.03;1.30;;;;;;;;;;6294473;28;20475;-83
2021/12/31 10:44:07;;;;;;;1.30;1.30;;;;;;;;;;6293574;28;20191;-83
2021/12/31 10:47:14;;;;;;;1.50;1.50;;;;;;;;;;6290120;28;20243;-84
2021/12/31 10:50:19;;;;;;;3.80;1.40;;;;;;;;;;6293108;28;20222;-81
2021/12/31 10:53:32;;;;;;;1.47;1.47;;;;;;;;;;6293676;28;20254;-81
2021/12/31 10:56:40;;;;;;;1.50;1.40;;;;;;;;;;6292003;28;20196;-84
2021/12/31 10:59:44;;;;;;;1.57;1.47;;;;;;;;;;6291500;28;20190;-81
2021/12/31 11:02:49;;;;;;;1.67;1.57;;;;;;;;;;6292868;28;20185;-83
2021/12/31 11:05:57;;;;;;;1.50;1.50;;;;;;;;;;6289799;28;20482;-80
2021/12/31 11:09:06;;;;;;;1.70;1.70;;;;;;;;;;6289943;28;20209;-82
2021/12/31 11:12:12;;;;;;;1.90;1.80;;;;;;;;;;6289979;28;20220;-82
2021/12/31 11:15:17;;;;;;;1.83;1.73;;;;;;;;;;6291116;28;20185;-81
2021/12/31 11:18:23;;;;;;;1.80;1.80;;;;;;;;;;6290405;28;20215;-83
2021/12/31 11:21:29;;;;;;;2.03;1.67;;;;;;;;;;6291830;28;20198;-80
2021/12/31 11:24:36;;;;;;;1.87;1.87;;;;;;;;;;6292944;28;20186;-80
2021/12/31 11:27:45;;;;;;;1.83;1.73;;;;;;;;;;6292375;28;20187;-80
2021/12/31 11:30:49;;;;;;;1.97;1.90;;;;;;;;;;6291202;28;20211;-79
2021/12/31 11:34:13;;;;;;;6.73;2.13;;;;;;;;;;6289517;28;20187;-79
2021/12/31 11:37:45;;;;;;;2.23;2.13;;;;;;;;;;6288826;28;20201;-79
2021/12/31 11:41:02;;;;;;;2.07;1.97;;;;;;;;;;6290616;28;20200;-79
2021/12/31 11:44:08;;;;;;;2.33;2.13;;;;;;;;;;6290778;28;20191;-79
2021/12/31 11:47:15;;;;;;;2.37;2.20;;;;;;;;;;6291110;28;20235;-79
2021/12/31 11:50:25;;;;;;;2.13;1.90;;;;;;;;;;6291723;28;20275;-79
2021/12/31 11:53:30;;;;;;;1.80;1.80;;;;;;;;;;6292147;28;20204;-79
2021/12/31 11:56:54;;;;;;;2.00;1.90;;;;;;;;;;6293519;28;20192;-80
2021/12/31 11:59:59;;;;;;;3.43;2.20;;;;;;;;;;6293588;28;20218;-79
2021/12/31 12:03:30;;;;;;;2.27;2.07;;;;;;;;;;6293873;28;20194;-79
2021/12/31 12:06:55;;;;;;;2.07;1.97;;;;;;;;;;6293492;28;20187;-79
2021/12/31 12:10:19;;;;;;;1.90;1.87;;;;;;;;;;6292975;28;20212;-78
2021/12/31 12:13:26;;;;;;;1.93;1.90;;;;;;;;;;6293747;28;20188;-78
2021/12/31 12:16:56;;;;;;;1.80;1.70;;;;;;;;;;6297665;28;20186;-79
2021/12/31 12:20:07;;;;;;;1.60;1.60;;;;;;;;;;6300741;28;20226;-79
2021/12/31 12:23:19;;;;;;;2.70;1.50;;;;;;;;;;6303626;28;20186;-79
2021/12/31 12:26:25;;;;;;;1.70;1.60;;;;;;;;;;6297494;28;20259;-79
2021/12/31 12:29:30;;;;;;;2.20;1.70;;;;;;;;;;6295039;28;20211;-79
2021/12/31 12:32:37;;;;;;;2.10;1.73;;;;;;;;;;6295199;28;20248;-80
2021/12/31 12:35:43;;;;;;;2.60;1.33;;;;;;;;;;6294096;28;20468;-79
2021/12/31 12:38:49;;;;;;;1.20;1.20;;;;;;;;;;6294562;28;20187;-79
2021/12/31 12:41:55;;;;;;;7.60;1.60;;;;;;;;;;6295008;28;20195;-79
2021/12/31 12:44:59;;;;;;;1.70;1.70;;;;;;;;;;6296256;28;20187;-80
2021/12/31 12:48:04;;;;;;;1.40;1.30;;;;;;;;;;6293674;28;20303;-80
2021/12/31 12:51:11;;;;;;;2.70;2.50;;;;;;;;;;6295306;28;20211;-79
2021/12/31 12:54:19;;;;;;;2.67;1.90;;;;;;;;;;6294753;28;20414;-80
2021/12/31 12:57:26;;;;;;;1.23;1.23;;;;;;;;;;6294315;28;20525;-79
2021/12/31 13:00:38;;;;;;;1.73;1.53;;;;;;;;;;6294514;28;20194;-79
2021/12/31 13:03:49;;;;;;;7.00;1.47;;;;;;;;;;6293632;28;20207;-80
2021/12/31 13:06:56;;;;;;;1.40;1.40;;;;;;;;;;6294058;28;20241;-79
2021/12/31 13:10:05;;;;;;;4.40;1.50;;;;;;;;;;6293537;28;20226;-79
2021/12/31 13:13:16;;;;;;;3.40;1.20;;;;;;;;;;6294052;28;20233;-78
2021/12/31 13:16:21;;;;;;;1.60;1.50;;;;;;;;;;6292931;28;20208;-79
2021/12/31 13:19:28;;;;;;;1.40;1.40;;;;;;;;;;6291942;28;20198;-79
2021/12/31 13:22:34;;;;;;;2.93;1.83;;;;;;;;;;6292336;28;20192;-80
2021/12/31 13:25:42;;;;;;;1.67;1.67;;;;;;;;;;6292398;28;20188;-80
2021/12/31 13:28:49;;;;;;;3.47;1.40;;;;;;;;;;6292878;28;20200;-78
2021/12/31 13:31:53;;;;;;;1.80;1.40;;;;;;;;;;6291308;28;20215;-82
2021/12/31 13:34:57;;;;;;;1.93;1.67;;;;;;;;;;6291444;28;20274;-80
2021/12/31 13:38:07;;;;;;;3.30;1.83;;;;;;;;;;6292235;28;20450;-80
2021/12/31 13:41:20;;;;;;;2.83;1.60;;;;;;;;;;6292507;28;20195;-80
2021/12/31 13:44:29;;;;;;;1.80;1.70;;;;;;;;;;6291340;28;20352;-78
2021/12/31 13:47:33;;;;;;;1.70;1.70;;;;;;;;;;6290829;28;20228;-77
2021/12/31 13:50:37;;;;;;;1.73;1.53;;;;;;;;;;6291624;28;20217;-79
2021/12/31 13:53:49;;;;;;;3.13;1.83;;;;;;;;;;6291446;28;20302;-80
2021/12/31 13:56:54;;;;;;;1.43;1.43;;;;;;;;;;6290845;28;20185;-78
2021/12/31 14:00:10;;;;;;;1.50;1.50;;;;;;;;;;6291159;28;20191;-79
2021/12/31 14:03:18;;;;;;;1.50;1.37;;;;;;;;;;6291215;28;20187;-79
2021/12/31 14:06:25;;;;;;;1.70;1.70;;;;;;;;;;6289533;28;20494;-84
2021/12/31 14:09:31;;;;;;;2.53;1.90;;;;;;;;;;6291177;28;20187;-78
2021/12/31 14:12:54;;;;;;;3.87;1.97;;;;;;;;;;6289842;28;20191;-79
2021/12/31 14:16:00;;;;;;;2.10;2.00;;;;;;;;;;6291022;28;20218;-80
2021/12/31 14:19:04;;;;;;;8.53;2.10;;;;;;;;;;6291675;28;20185;-80
2021/12/31 14:22:12;;;;;;;2.17;1.97;;;;;;;;;;6291575;28;20226;-80
2021/12/31 14:25:16;;;;;;;2.37;2.00;;;;;;;;;;6290732;28;20241;-81
2021/12/31 14:28:20;;;;;;;2.03;1.90;;;;;;;;;;6291176;28;20187;-78
2021/12/31 14:31:25;;;;;;;2.00;1.77;;;;;;;;;;6289265;28;20222;-78
2021/12/31 14:34:32;;;;;;;3.27;2.20;;;;;;;;;;6290490;28;20195;-79
2021/12/31 14:37:40;;;;;;;4.90;2.03;;;;;;;;;;6290604;28;20208;-78
2021/12/31 14:40:48;;;;;;;1.87;1.87;;;;;;;;;;6289392;28;20387;-79
2021/12/31 14:43:58;;;;;;;2.07;1.97;;;;;;;;;;6290994;28;20191;-79
2021/12/31 14:47:04;;;;;;;10.40;5.23;;;;;;;;;;6289801;28;20238;-79
2021/12/31 14:50:13;;;;;;;5.60;3.10;;;;;;;;;;6289063;28;20324;-78
2021/12/31 14:53:18;;;;;;;3.00;2.03;;;;;;;;;;6289735;28;20187;-79
2021/12/31 14:56:22;;;;;;;5.20;1.97;;;;;;;;;;6290206;28;20188;-79
2021/12/31 14:59:29;;;;;;;2.03;1.93;;;;;;;;;;6290110;28;20188;-79
2021/12/31 15:02:34;;;;;;;2.63;2.03;;;;;;;;;;6290031;28;20198;-79
2021/12/31 15:05:39;;;;;;;2.83;2.00;;;;;;;;;;6289904;28;20276;-79
2021/12/31 15:08:43;;;;;;;5.93;2.20;;;;;;;;;;6289192;28;20277;-79
2021/12/31 15:11:48;;;;;;;2.27;2.07;;;;;;;;;;6289945;28;20219;-79
2021/12/31 15:14:57;;;;;;;2.23;2.13;;;;;;;;;;6290213;28;20219;-79
2021/12/31 15:18:03;;;;;;;2.60;2.50;;;;;;;;;;6291055;28;20199;-80
2021/12/31 15:21:09;;;;;;;2.60;2.40;;;;;;;;;;6290371;28;20266;-80
2021/12/31 15:24:15;;;;;;;2.20;2.20;;;;;;;;;;6290281;28;20186;-80
2021/12/31 15:27:20;;;;;;;2.47;2.27;;;;;;;;;;6288913;28;20209;-79
2021/12/31 15:30:24;;;;;;;2.77;2.57;;;;;;;;;;6290888;28;20416;-80
2021/12/31 15:33:30;;;;;;;3.13;2.30;;;;;;;;;;6290258;28;20415;-80
2021/12/31 15:36:34;;;;;;;2.20;2.10;;;;;;;;;;6291254;28;20191;-80
2021/12/31 15:39:39;;;;;;;4.20;2.30;;;;;;;;;;6290055;28;20373;-80
2021/12/31 15:42:43;;;;;;;8.83;5.77;;;;;;;;;;6289742;28;20389;-80
2021/12/31 15:45:48;;;;;;;2.57;2.33;;;;;;;;;;6290207;28;20203;-80
2021/12/31 15:48:53;;;;;;;2.57;2.53;;;;;;;;;;6291306;28;20189;-80
2021/12/31 15:51:57;;;;;;;2.30;2.20;;;;;;;;;;6291591;28;20245;-80
2021/12/31 15:55:01;;;;;;;2.70;2.50;;;;;;;;;;6290194;28;20191;-80
2021/12/31 15:58:05;;;;;;;2.70;2.53;;;;;;;;;;6291666;28;20187;-80
2021/12/31 16:01:10;;;;;;;2.73;2.53;;;;;;;;;;6291491;28;20195;-80
2021/12/31 16:04:15;;;;;;;2.77;2.30;;;;;;;;;;6290101;28;20225;-79
2021/12/31 16:07:19;;;;;;;2.30;2.17;;;;;;;;;;6288878;28;20479;-80
2021/12/31 16:10:24;;;;;;;2.80;2.03;;;;;;;;;;6290276;28;20251;-79
2021/12/31 16:13:28;;;;;;;2.67;1.93;;;;;;;;;;6289017;28;20211;-79
2021/12/31 16:16:33;;;;;;;2.07;1.97;;;;;;;;;;6290262;28;20252;-80
2021/12/31 16:19:38;;;;;;;2.97;2.70;;;;;;;;;;6290738;28;20255;-80
2021/12/31 16:22:43;;;;;;;2.63;2.43;;;;;;;;;;6290624;28;20486;-80
2021/12/31 16:25:47;;;;;;;3.37;2.33;;;;;;;;;;6291736;28;20191;-80
2021/12/31 16:28:51;;;;;;;5.90;3.57;;;;;;;;;;6290996;28;20480;-80
2021/12/31 16:31:56;;;;;;;2.73;2.50;;;;;;;;;;6290307;28;20214;-81
2021/12/31 16:35:08;;;;;;;2.33;2.13;;;;;;;;;;6289960;28;20452;-80
2021/12/31 16:38:14;;;;;;;8.50;2.63;;;;;;;;;;6290491;28;20194;-80
2021/12/31 16:41:18;;;;;;;4.40;2.50;;;;;;;;;;6292293;28;20200;-80
2021/12/31 16:44:22;;;;;;;9.30;2.30;;;;;;;;;;6292547;28;20252;-80
2021/12/31 16:47:27;;;;;;;2.33;2.13;;;;;;;;;;6292203;28;20295;-79
2021/12/31 16:50:32;;;;;;;2.43;2.33;;;;;;;;;;6291830;28;20573;-79
2021/12/31 16:53:36;;;;;;;3.17;2.70;;;;;;;;;;6290405;28;20520;-79
2021/12/31 16:56:40;;;;;;;13.77;5.80;;;;;;;;;;6291082;28;20501;-79
2021/12/31 16:59:45;;;;;;;7.90;5.60;;;;;;;;;;6290424;28;20478;-80
2021/12/31 17:02:49;;;;;;;4.47;3.40;;;;;;;;;;6290981;28;20259;-79
2021/12/31 17:05:54;;;;;;;3.30;3.07;;;;;;;;;;6291495;28;20194;-79
2021/12/31 17:08:59;;;;;;;2.83;2.63;;;;;;;;;;6295609;28;20187;-79
2021/12/31 17:12:04;;;;;;;5.17;2.87;;;;;;;;;;6295133;28;20242;-79
2021/12/31 17:15:09;;;;;;;3.73;2.53;;;;;;;;;;6295344;28;20225;-79
2021/12/31 17:18:19;;;;;;;5.67;2.80;;;;;;;;;;6294724;28;20454;-79
2021/12/31 17:21:24;;;;;;;3.93;2.87;;;;;;;;;;6294649;28;20233;-79
2021/12/31 17:24:30;;;;;;;4.40;2.83;;;;;;;;;;6294203;28;20187;-79
2021/12/31 17:27:34;;;;;;;4.37;3.17;;;;;;;;;;6294927;28;20185;-79
2021/12/31 17:30:38;;;;;;;3.07;2.80;;;;;;;;;;6295072;28;20194;-79
2021/12/31 17:33:42;;;;;;;16.40;7.67;;;;;;;;;;6294609;28;20222;-80
2021/12/31 17:36:48;;;;;;;11.67;6.50;;;;;;;;;;6294233;28;20249;-80
2021/12/31 17:39:52;;;;;;;5.43;4.90;;;;;;;;;;6326908;28;20204;-79
2021/12/31 17:42:57;;;;;;;6.13;2.93;;;;;;;;;;6295495;28;20192;-80
2021/12/31 17:46:01;;;;;;;6.23;3.40;;;;;;;;;;6293347;28;20234;-80
2021/12/31 17:49:07;;;;;;;6.97;3.20;;;;;;;;;;6295419;28;20203;-80
2021/12/31 17:52:13;;;;;;;3.10;2.70;;;;;;;;;;6293886;28;20226;-80
2021/12/31 17:55:18;;;;;;;3.93;3.53;;;;;;;;;;6294902;28;20222;-80
2021/12/31 17:58:22;;;;;;;3.87;2.77;;;;;;;;;;6294035;28;20198;-79
2021/12/31 18:01:27;;;;;;;4.03;3.27;;;;;;;;;;6293259;28;20207;-79
2021/12/31 18:04:31;;;;;;;7.13;2.47;;;;;;;;;;6293770;28;20195;-79
2021/12/31 18:07:38;;;;;;;4.83;2.80;;;;;;;;;;6293872;28;20188;-79
2021/12/31 18:10:42;;;;;;;3.33;2.60;;;;;;;;;;6293467;28;20193;-79
2021/12/31 18:13:47;;;;;;;3.40;2.23;;;;;;;;;;6293507;28;20254;-79
2021/12/31 18:16:50;;;;;;;4.50;2.27;;;;;;;;;;6292284;28;20500;-79
2021/12/31 18:19:55;;;;;;;2.40;2.20;;;;;;;;;;6293287;28;20187;-79
2021/12/31 18:23:01;;;;;;;2.73;2.53;;;;;;;;;;6292543;28;20191;-81
2021/12/31 18:26:05;;;;;;;5.00;2.57;;;;;;;;;;6291474;28;20497;-81
2021/12/31 18:29:11;;;;;;;4.93;2.70;;;;;;;;;;6293057;28;20262;-81
2021/12/31 18:32:16;;;;;;;4.90;2.83;;;;;;;;;;6292867;28;20194;-81
2021/12/31 18:35:20;;;;;;;3.57;2.40;;;;;;;;;;6293059;28;20247;-80